Time;durP1;ratioP1;P1;durP2;ratioP2;P2;SDS_P1;SDS_P2;PMS_P1;PMS_P2;Temp;Humidity;BMP_temperature;BMP_pressure;BME280_temperature;BME280_humidity;BME280_pressure;Samples;Min_cycle;Max_cycle;Signal;HPM_P1;HPM_P2
2022/11/19 05:45:31;;;;;;;23.63;12.70;;;;;;;;;;5362829;23;20054;-60
2022/11/19 05:47:57;;;;;;;18.10;10.98;;;;;;;;;;4972237;28;20097;-61
2022/11/19 05:50:23;;;;;;;17.20;10.40;;;;;;;;;;4972182;28;20077;-59
2022/11/19 05:52:49;;;;;;;18.48;10.50;;;;;;;;;;4971914;28;20026;-59
2022/11/19 05:55:16;;;;;;;15.73;9.45;;;;;;;;;;4972230;28;20035;-62
2022/11/19 05:57:42;;;;;;;26.00;11.48;;;;;;;;;;4971848;28;20019;-61
2022/11/19 06:00:09;;;;;;;18.67;10.65;;;;;;;;;;4971653;28;20036;-60
2022/11/19 06:02:35;;;;;;;15.60;10.30;;;;;;;;;;4972215;28;20038;-60
2022/11/19 06:05:01;;;;;;;18.00;10.52;;;;;;;;;;4971244;28;20042;-66
2022/11/19 06:07:27;;;;;;;21.00;11.50;;;;;;;;;;4972112;28;20437;-59
2022/11/19 06:09:53;;;;;;;19.05;10.93;;;;;;;;;;4972179;28;20452;-66
2022/11/19 06:12:19;;;;;;;21.95;11.30;;;;;;;;;;4971927;28;20027;-60
2022/11/19 06:14:45;;;;;;;18.15;10.57;;;;;;;;;;4971912;28;20364;-67
2022/11/19 06:17:11;;;;;;;19.67;12.02;;;;;;;;;;4954315;28;20100;-62
2022/11/19 06:19:37;;;;;;;22.45;12.30;;;;;;;;;;4971620;28;20494;-60
2022/11/19 06:22:04;;;;;;;18.50;11.40;;;;;;;;;;4971958;28;20022;-60
2022/11/19 06:24:30;;;;;;;19.15;11.63;;;;;;;;;;4954417;28;20038;-59
2022/11/19 06:26:56;;;;;;;22.10;13.23;;;;;;;;;;4971808;28;20054;-60
2022/11/19 06:29:22;;;;;;;25.48;13.93;;;;;;;;;;4972018;28;20459;-65
2022/11/19 06:31:48;;;;;;;26.17;14.02;;;;;;;;;;4971800;28;20131;-60
2022/11/19 06:34:14;;;;;;;21.80;12.85;;;;;;;;;;4971750;28;20039;-61
2022/11/19 06:36:40;;;;;;;23.02;13.32;;;;;;;;;;4971886;28;20019;-61
2022/11/19 06:39:06;;;;;;;19.42;12.68;;;;;;;;;;4971865;28;20019;-60
2022/11/19 06:41:32;;;;;;;21.73;13.13;;;;;;;;;;4971726;28;20493;-60
2022/11/19 06:43:58;;;;;;;22.10;12.88;;;;;;;;;;4971786;28;20034;-62
2022/11/19 06:46:24;;;;;;;22.65;13.02;;;;;;;;;;4971640;28;20062;-60
2022/11/19 06:48:50;;;;;;;24.50;14.82;;;;;;;;;;4965513;28;20502;-61
2022/11/19 06:51:16;;;;;;;27.80;14.07;;;;;;;;;;4960030;28;20023;-59
2022/11/19 06:53:43;;;;;;;28.27;15.63;;;;;;;;;;4961751;28;20035;-60
2022/11/19 06:56:09;;;;;;;30.52;17.85;;;;;;;;;;4960437;28;20093;-60
2022/11/19 06:58:35;;;;;;;36.95;16.95;;;;;;;;;;4960420;28;20102;-59
2022/11/19 07:01:01;;;;;;;57.03;29.35;;;;;;;;;;4961722;28;20023;-60
2022/11/19 07:03:27;;;;;;;55.22;29.10;;;;;;;;;;4959878;28;20028;-60
2022/11/19 07:06:01;;;;;;;44.10;24.33;;;;;;;;;;4960608;28;20029;-60
2022/11/19 07:08:27;;;;;;;44.35;24.75;;;;;;;;;;4959961;28;20050;-62
2022/11/19 07:10:55;;;;;;;54.90;28.35;;;;;;;;;;4960319;28;20118;-71
2022/11/19 07:13:21;;;;;;;56.35;28.23;;;;;;;;;;4961529;28;20027;-62
2022/11/19 07:15:47;;;;;;;41.53;20.45;;;;;;;;;;4960393;28;20023;-61
2022/11/19 07:18:13;;;;;;;49.78;24.95;;;;;;;;;;4964104;28;20394;-65
2022/11/19 07:20:40;;;;;;;53.65;26.25;;;;;;;;;;4962085;28;20027;-64
2022/11/19 07:23:09;;;;;;;37.47;19.65;;;;;;;;;;4963804;28;20023;-62
2022/11/19 07:25:35;;;;;;;27.95;14.50;;;;;;;;;;4950614;28;20031;-67
2022/11/19 07:28:01;;;;;;;19.13;11.68;;;;;;;;;;4974485;28;20078;-62
2022/11/19 07:30:27;;;;;;;26.50;14.40;;;;;;;;;;4966718;28;20085;-61
2022/11/19 07:32:53;;;;;;;30.35;14.05;;;;;;;;;;4964130;28;20042;-61
2022/11/19 07:35:19;;;;;;;33.45;15.48;;;;;;;;;;4962206;28;20479;-68
2022/11/19 07:37:45;;;;;;;27.38;14.27;;;;;;;;;;4964466;28;20644;-72
2022/11/19 07:40:13;;;;;;;30.60;16.58;;;;;;;;;;4962265;28;20474;-60
2022/11/19 07:42:48;;;;;;;26.73;15.27;;;;;;;;;;4955435;29;20034;-60
2022/11/19 07:45:18;;;;;;;28.50;15.50;;;;;;;;;;4960472;28;20030;-60
2022/11/19 07:47:44;;;;;;;26.95;15.73;;;;;;;;;;4974629;28;20102;-60
2022/11/19 07:50:11;;;;;;;30.60;16.38;;;;;;;;;;4974651;28;20026;-72
2022/11/19 07:52:37;;;;;;;29.27;15.00;;;;;;;;;;4969851;28;20109;-60
2022/11/19 07:55:03;;;;;;;22.27;13.35;;;;;;;;;;4957726;28;20030;-60
2022/11/19 07:57:29;;;;;;;24.35;13.27;;;;;;;;;;4964585;28;20082;-59
2022/11/19 07:59:55;;;;;;;42.10;22.75;;;;;;;;;;4938741;28;20423;-59
2022/11/19 08:02:21;;;;;;;30.25;17.33;;;;;;;;;;4973981;28;20082;-69
2022/11/19 08:04:47;;;;;;;35.20;18.25;;;;;;;;;;4973591;28;20184;-65
2022/11/19 08:07:13;;;;;;;45.17;26.58;;;;;;;;;;4973649;28;20076;-61
2022/11/19 08:09:39;;;;;;;38.38;21.08;;;;;;;;;;4973595;28;20030;-77
2022/11/19 08:12:05;;;;;;;23.92;14.25;;;;;;;;;;4973598;28;20077;-61
2022/11/19 08:14:31;;;;;;;29.42;16.80;;;;;;;;;;4973231;28;20125;-60
2022/11/19 08:19:42;;;;;;;36.55;17.88;;;;;;;;;;4964403;28;20517;-69
2022/11/19 08:22:10;;;;;;;29.95;17.08;;;;;;;;;;4948696;28;20149;-62
2022/11/19 08:24:36;;;;;;;28.60;16.48;;;;;;;;;;4964031;28;20034;-63
2022/11/19 08:27:04;;;;;;;28.50;15.73;;;;;;;;;;4963942;28;20023;-60
2022/11/19 08:29:31;;;;;;;20.65;11.95;;;;;;;;;;4963712;28;20038;-65
2022/11/19 08:31:58;;;;;;;28.17;14.40;;;;;;;;;;4966682;28;20038;-69
2022/11/19 08:34:24;;;;;;;28.25;16.55;;;;;;;;;;4964097;28;20039;-61
2022/11/19 08:36:51;;;;;;;32.60;19.20;;;;;;;;;;4963556;28;20085;-61
2022/11/19 08:39:17;;;;;;;54.67;31.73;;;;;;;;;;4963314;28;20625;-61
2022/11/19 08:44:28;;;;;;;54.42;32.67;;;;;;;;;;4963468;28;20113;-67
2022/11/19 08:46:54;;;;;;;52.00;29.65;;;;;;;;;;4961617;28;20274;-60
2022/11/19 08:49:20;;;;;;;50.25;28.00;;;;;;;;;;4962307;28;20469;-61
2022/11/19 08:51:46;;;;;;;35.72;21.63;;;;;;;;;;4954140;29;20023;-73
2022/11/19 08:54:12;;;;;;;38.80;25.17;;;;;;;;;;4966819;28;20125;-75
2022/11/19 08:56:38;;;;;;;36.33;21.23;;;;;;;;;;4973382;28;20023;-70
2022/11/19 08:59:04;;;;;;;35.05;18.55;;;;;;;;;;4973121;28;20038;-75
2022/11/19 09:01:30;;;;;;;27.77;18.15;;;;;;;;;;4957001;28;20027;-71
2022/11/19 09:03:56;;;;;;;34.13;18.67;;;;;;;;;;4953620;28;20210;-64
2022/11/19 09:06:23;;;;;;;28.17;16.52;;;;;;;;;;4962892;28;20027;-60
2022/11/19 09:08:49;;;;;;;30.58;18.20;;;;;;;;;;4967338;28;20031;-70
2022/11/19 09:11:16;;;;;;;33.47;19.90;;;;;;;;;;4966940;28;20141;-67
2022/11/19 09:13:42;;;;;;;41.78;23.63;;;;;;;;;;4964470;28;20897;-59
2022/11/19 09:16:09;;;;;;;43.05;23.10;;;;;;;;;;4962358;28;20488;-60
2022/11/19 09:18:39;;;;;;;39.13;22.38;;;;;;;;;;4960165;28;20105;-60
2022/11/19 09:21:05;;;;;;;38.10;21.23;;;;;;;;;;4958453;28;20023;-71
2022/11/19 09:23:31;;;;;;;36.60;20.17;;;;;;;;;;4959811;28;20078;-60
2022/11/19 09:26:01;;;;;;;28.17;16.92;;;;;;;;;;4958922;28;20034;-61
2022/11/19 09:28:28;;;;;;;27.45;17.80;;;;;;;;;;4963102;28;20483;-74
2022/11/19 09:31:02;;;;;;;25.95;16.10;;;;;;;;;;4958923;28;20034;-65
2022/11/19 09:33:30;;;;;;;36.70;19.02;;;;;;;;;;4953022;29;20039;-60
2022/11/19 09:35:56;;;;;;;34.13;20.38;;;;;;;;;;4960276;28;20081;-60
2022/11/19 09:38:22;;;;;;;41.42;24.85;;;;;;;;;;4943127;28;20372;-61
2022/11/19 09:41:03;;;;;;;45.55;24.80;;;;;;;;;;4960992;28;20011;-64
2022/11/19 09:43:52;;;;;;;46.42;25.67;;;;;;;;;;4961261;28;20023;-67
2022/11/19 09:46:37;;;;;;;48.60;25.85;;;;;;;;;;4972331;28;20514;-65
2022/11/19 09:49:08;;;;;;;47.17;24.38;;;;;;;;;;4973847;28;20034;-64
2022/11/19 09:51:36;;;;;;;45.05;22.92;;;;;;;;;;4958032;28;20035;-64
2022/11/19 09:54:13;;;;;;;37.85;21.27;;;;;;;;;;4972635;28;20855;-60
2022/11/19 09:56:42;;;;;;;36.15;19.33;;;;;;;;;;4953549;29;20031;-66
2022/11/19 09:59:28;;;;;;;31.17;17.52;;;;;;;;;;4959431;28;20039;-68
2022/11/19 10:01:55;;;;;;;30.58;17.48;;;;;;;;;;4885743;29;20080;-61
2022/11/19 10:04:24;;;;;;;31.25;17.65;;;;;;;;;;4879551;29;20045;-60
2022/11/19 10:07:14;;;;;;;25.98;16.17;;;;;;;;;;4881657;29;20528;-60
2022/11/19 10:10:02;;;;;;;28.35;16.92;;;;;;;;;;4876733;29;20100;-58
2022/11/19 10:12:47;;;;;;;32.08;18.38;;;;;;;;;;4875778;29;20123;-59
2022/11/19 10:15:22;;;;;;;28.42;17.70;;;;;;;;;;4883299;29;20048;-59
2022/11/19 10:17:52;;;;;;;30.88;18.70;;;;;;;;;;4878618;29;20065;-59
2022/11/19 10:20:37;;;;;;;29.13;17.23;;;;;;;;;;4882282;29;20037;-59
2022/11/19 10:23:03;;;;;;;28.25;17.05;;;;;;;;;;4883161;29;20096;-64
2022/11/19 10:25:35;;;;;;;24.95;15.60;;;;;;;;;;4881885;29;20389;-59
2022/11/19 10:28:13;;;;;;;25.38;15.15;;;;;;;;;;4882964;29;20515;-58
2022/11/19 10:30:40;;;;;;;25.73;14.73;;;;;;;;;;4878089;29;20032;-59
2022/11/19 10:33:39;;;;;;;26.92;15.38;;;;;;;;;;4884298;29;20051;-71
2022/11/19 10:36:18;;;;;;;26.67;14.85;;;;;;;;;;4835131;29;20034;-77
2022/11/19 10:38:55;;;;;;;25.30;15.38;;;;;;;;;;4856358;29;20044;-75
2022/11/19 10:41:25;;;;;;;25.85;14.82;;;;;;;;;;4901640;29;20028;-60
2022/11/19 10:43:56;;;;;;;26.90;15.30;;;;;;;;;;4891621;29;20177;-60
2022/11/19 10:46:24;;;;;;;30.17;16.92;;;;;;;;;;4889440;29;20043;-67
2022/11/19 10:48:54;;;;;;;27.88;16.88;;;;;;;;;;4890418;29;20040;-70
2022/11/19 10:51:23;;;;;;;33.25;19.05;;;;;;;;;;4893392;29;20040;-63
2022/11/19 10:53:50;;;;;;;27.92;17.75;;;;;;;;;;4896180;29;20136;-62
2022/11/19 10:56:22;;;;;;;29.00;17.67;;;;;;;;;;4895967;29;20531;-62
2022/11/19 10:59:06;;;;;;;28.10;17.37;;;;;;;;;;4879341;29;20405;-62
2022/11/19 11:01:33;;;;;;;32.65;18.38;;;;;;;;;;4895726;29;20033;-66
2022/11/19 11:04:07;;;;;;;30.08;18.90;;;;;;;;;;4895963;29;20036;-63
2022/11/19 11:06:48;;;;;;;32.30;18.02;;;;;;;;;;4895180;29;20032;-62
2022/11/19 11:09:27;;;;;;;31.15;17.25;;;;;;;;;;4893242;29;20036;-67
2022/11/19 11:14:53;;;;;;;41.35;20.88;;;;;;;;;;4955432;28;20054;-65
2022/11/19 11:17:31;;;;;;;27.85;16.15;;;;;;;;;;4957447;29;20019;-67
2022/11/19 11:20:10;;;;;;;31.33;16.58;;;;;;;;;;4956504;29;20517;-64
2022/11/19 11:22:36;;;;;;;27.92;17.13;;;;;;;;;;4955679;29;20086;-61
2022/11/19 11:25:02;;;;;;;30.38;17.38;;;;;;;;;;4955558;29;20115;-61
2022/11/19 11:27:29;;;;;;;30.35;17.90;;;;;;;;;;4954989;29;20031;-69
2022/11/19 11:30:05;;;;;;;28.85;18.30;;;;;;;;;;4953803;29;20110;-60
2022/11/19 11:32:31;;;;;;;32.05;18.20;;;;;;;;;;4954447;29;20030;-60
2022/11/19 11:34:57;;;;;;;31.10;17.65;;;;;;;;;;4955242;29;20459;-61
2022/11/19 11:37:25;;;;;;;31.25;18.85;;;;;;;;;;4955031;29;20399;-62
2022/11/19 11:39:54;;;;;;;32.75;18.50;;;;;;;;;;4955142;29;20102;-63
2022/11/19 11:42:21;;;;;;;32.13;19.45;;;;;;;;;;4963233;28;20084;-61
2022/11/19 11:44:51;;;;;;;38.42;20.48;;;;;;;;;;4965280;28;20134;-62
2022/11/19 11:47:18;;;;;;;33.03;19.40;;;;;;;;;;4962349;28;20120;-61
2022/11/19 11:49:55;;;;;;;37.65;21.13;;;;;;;;;;4963962;28;20374;-69
2022/11/19 11:52:34;;;;;;;40.53;21.35;;;;;;;;;;4964712;28;20102;-60
2022/11/19 11:55:04;;;;;;;36.40;19.00;;;;;;;;;;4962840;28;20082;-64
2022/11/19 11:57:34;;;;;;;41.92;21.88;;;;;;;;;;4962986;28;20785;-61
2022/11/19 12:00:01;;;;;;;41.10;23.77;;;;;;;;;;4962059;28;20035;-62
2022/11/19 12:02:31;;;;;;;34.10;19.42;;;;;;;;;;4958880;28;20086;-62
2022/11/19 12:05:16;;;;;;;38.88;20.30;;;;;;;;;;4971442;28;20501;-62
2022/11/19 12:08:05;;;;;;;43.50;21.70;;;;;;;;;;4974252;28;20037;-62
2022/11/19 12:10:31;;;;;;;53.55;28.15;;;;;;;;;;4876482;29;20040;-62
2022/11/19 12:13:06;;;;;;;41.45;22.27;;;;;;;;;;4859083;29;20065;-63
2022/11/19 12:15:38;;;;;;;41.97;22.88;;;;;;;;;;4861430;29;20081;-61
2022/11/19 12:18:07;;;;;;;37.15;21.95;;;;;;;;;;4860800;29;20036;-70
2022/11/19 12:20:59;;;;;;;37.42;21.50;;;;;;;;;;4872494;29;20464;-62
2022/11/19 12:23:27;;;;;;;36.03;20.17;;;;;;;;;;4803203;29;20058;-63
2022/11/19 12:25:59;;;;;;;31.02;18.80;;;;;;;;;;4803240;29;20086;-66
2022/11/19 12:28:57;;;;;;;31.50;18.77;;;;;;;;;;4802812;29;20884;-64
2022/11/19 12:31:32;;;;;;;30.75;18.55;;;;;;;;;;4749338;29;20125;-69
2022/11/19 12:34:13;;;;;;;37.00;20.27;;;;;;;;;;4749101;30;20084;-62
2022/11/19 12:36:47;;;;;;;38.78;21.60;;;;;;;;;;4748907;30;20056;-62
2022/11/19 12:39:29;;;;;;;34.15;18.98;;;;;;;;;;4748266;30;20072;-71
2022/11/19 12:42:01;;;;;;;35.30;19.13;;;;;;;;;;4748235;30;20137;-63
2022/11/19 12:44:42;;;;;;;36.15;21.00;;;;;;;;;;4748154;30;20040;-62
2022/11/19 12:47:23;;;;;;;38.58;20.67;;;;;;;;;;4774921;29;20107;-61
2022/11/19 12:49:55;;;;;;;38.15;21.70;;;;;;;;;;4830873;29;20120;-62
2022/11/19 12:52:46;;;;;;;43.45;24.33;;;;;;;;;;4827658;29;20192;-62
2022/11/19 12:55:18;;;;;;;51.78;29.02;;;;;;;;;;4747418;30;20075;-71
2022/11/19 12:57:44;;;;;;;45.33;26.77;;;;;;;;;;4747733;30;20067;-61
2022/11/19 13:00:12;;;;;;;56.33;30.02;;;;;;;;;;4764601;30;20768;-62
2022/11/19 13:02:50;;;;;;;52.33;26.02;;;;;;;;;;4783866;30;20396;-59
2022/11/19 13:05:21;;;;;;;48.50;27.02;;;;;;;;;;4782846;30;20917;-70
2022/11/19 13:08:08;;;;;;;47.08;26.15;;;;;;;;;;4844484;29;20052;-71
2022/11/19 13:10:39;;;;;;;44.42;25.13;;;;;;;;;;4857327;29;20168;-72
2022/11/19 13:13:07;;;;;;;49.65;27.70;;;;;;;;;;4856438;29;20603;-66
2022/11/19 13:15:35;;;;;;;45.03;25.20;;;;;;;;;;4840032;29;20065;-71
2022/11/19 13:18:01;;;;;;;47.08;26.73;;;;;;;;;;4838487;29;20086;-66
2022/11/19 13:20:27;;;;;;;52.85;28.83;;;;;;;;;;4839028;29;20430;-59
2022/11/19 13:22:57;;;;;;;46.97;26.80;;;;;;;;;;4850961;29;20078;-71
2022/11/19 13:25:28;;;;;;;48.38;28.10;;;;;;;;;;4829463;29;20057;-70
2022/11/19 13:27:55;;;;;;;49.08;27.85;;;;;;;;;;4854608;29;20603;-67
2022/11/19 13:30:22;;;;;;;51.28;28.98;;;;;;;;;;4845877;29;20666;-60
2022/11/19 13:33:07;;;;;;;54.17;28.02;;;;;;;;;;4944760;28;20074;-64
2022/11/19 13:35:38;;;;;;;49.58;28.15;;;;;;;;;;4961601;28;20057;-60
2022/11/19 13:38:25;;;;;;;60.15;28.73;;;;;;;;;;4960646;28;20039;-72
2022/11/19 13:40:52;;;;;;;47.92;27.83;;;;;;;;;;4967496;28;20865;-70
2022/11/19 13:46:10;;;;;;;49.25;29.13;;;;;;;;;;4972452;28;20616;-71
2022/11/19 13:48:56;;;;;;;53.28;30.80;;;;;;;;;;4972715;28;20073;-71
2022/11/19 13:51:22;;;;;;;56.65;32.67;;;;;;;;;;4972336;28;20116;-60
2022/11/19 13:53:48;;;;;;;59.75;33.08;;;;;;;;;;4972406;28;20494;-81
2022/11/19 13:56:16;;;;;;;59.65;34.65;;;;;;;;;;4972367;28;20022;-60
2022/11/19 13:59:00;;;;;;;58.00;34.70;;;;;;;;;;4972436;28;20027;-60
2022/11/19 14:01:44;;;;;;;59.38;32.88;;;;;;;;;;4972488;28;20041;-71
2022/11/19 14:04:16;;;;;;;63.03;36.88;;;;;;;;;;4972218;28;20034;-62
2022/11/19 14:07:01;;;;;;;60.42;35.10;;;;;;;;;;4972057;28;20074;-67
2022/11/19 14:09:42;;;;;;;62.53;34.83;;;;;;;;;;4971901;28;20039;-63
2022/11/19 14:12:08;;;;;;;61.90;35.97;;;;;;;;;;4971875;28;20015;-65
2022/11/19 14:26:45;;;;;;;52.08;31.88;;;;;;;;;;4950258;28;20090;-61
2022/11/19 14:29:31;;;;;;;56.42;31.98;;;;;;;;;;4926920;29;20043;-71
2022/11/19 14:32:01;;;;;;;51.53;30.70;;;;;;;;;;4878398;29;20142;-59
2022/11/19 14:34:29;;;;;;;55.50;32.63;;;;;;;;;;4878166;29;20052;-65
2022/11/19 14:36:59;;;;;;;60.03;33.90;;;;;;;;;;4878596;29;20091;-66
2022/11/19 14:39:27;;;;;;;60.55;33.33;;;;;;;;;;4877910;29;20497;-66
2022/11/19 14:42:22;;;;;;;57.33;31.55;;;;;;;;;;4878409;29;20584;-65
2022/11/19 14:44:57;;;;;;;58.25;32.03;;;;;;;;;;4878163;29;20084;-67
2022/11/19 14:47:23;;;;;;;57.85;33.30;;;;;;;;;;4877888;29;20529;-68
2022/11/19 14:49:50;;;;;;;59.60;33.42;;;;;;;;;;4877379;29;20184;-66
2022/11/19 14:52:21;;;;;;;62.20;33.92;;;;;;;;;;4878136;29;20065;-66
2022/11/19 14:54:52;;;;;;;57.65;33.75;;;;;;;;;;4877639;29;20097;-68
2022/11/19 14:57:28;;;;;;;55.85;33.97;;;;;;;;;;4878196;29;20106;-61
2022/11/19 15:00:00;;;;;;;63.33;36.78;;;;;;;;;;4877737;29;20544;-63
2022/11/19 15:02:26;;;;;;;63.05;36.90;;;;;;;;;;4878119;29;20040;-65
2022/11/19 15:04:57;;;;;;;62.53;37.15;;;;;;;;;;4877729;29;20033;-66
2022/11/19 15:07:32;;;;;;;61.28;35.95;;;;;;;;;;4877996;29;20490;-61
2022/11/19 15:10:10;;;;;;;70.55;39.88;;;;;;;;;;4910994;29;20040;-70
2022/11/19 15:12:39;;;;;;;67.38;39.03;;;;;;;;;;4899027;29;20029;-69
2022/11/19 15:15:20;;;;;;;68.53;40.35;;;;;;;;;;4896309;29;20060;-69
2022/11/19 15:18:00;;;;;;;71.78;40.58;;;;;;;;;;4895664;29;20076;-65
2022/11/19 15:20:35;;;;;;;72.43;39.78;;;;;;;;;;4907248;29;20047;-63
2022/11/19 15:23:17;;;;;;;78.43;44.40;;;;;;;;;;4955603;29;20059;-65
2022/11/19 15:25:46;;;;;;;85.82;49.10;;;;;;;;;;4965836;28;20475;-67
2022/11/19 15:28:12;;;;;;;96.35;50.65;;;;;;;;;;4974668;28;20110;-62
2022/11/19 15:30:52;;;;;;;91.22;50.95;;;;;;;;;;4960347;28;20514;-71
2022/11/19 15:33:36;;;;;;;95.68;51.47;;;;;;;;;;4955475;29;20475;-65
2022/11/19 15:36:17;;;;;;;92.45;49.30;;;;;;;;;;4955298;29;20043;-65
2022/11/19 15:39:02;;;;;;;93.65;51.60;;;;;;;;;;4954693;28;20035;-66
2022/11/19 15:41:31;;;;;;;96.93;51.83;;;;;;;;;;4955376;29;20034;-67
2022/11/19 15:43:58;;;;;;;86.82;48.95;;;;;;;;;;4958289;28;20364;-58
2022/11/19 15:46:24;;;;;;;87.32;48.30;;;;;;;;;;4973952;28;20109;-66
2022/11/19 15:49:04;;;;;;;81.20;45.00;;;;;;;;;;4967777;28;20438;-64
2022/11/19 15:51:35;;;;;;;74.65;42.55;;;;;;;;;;4962636;28;20054;-67
2022/11/19 15:54:02;;;;;;;73.80;40.72;;;;;;;;;;4963186;28;20041;-66
2022/11/19 15:56:31;;;;;;;71.13;39.08;;;;;;;;;;4964566;28;20114;-65
2022/11/19 15:58:57;;;;;;;68.13;38.08;;;;;;;;;;4940181;29;20067;-69
2022/11/19 16:01:23;;;;;;;66.32;37.38;;;;;;;;;;4959599;28;20082;-64
2022/11/19 16:03:51;;;;;;;68.75;39.80;;;;;;;;;;4955220;29;20035;-66
2022/11/19 16:06:17;;;;;;;71.70;39.92;;;;;;;;;;4954759;29;20031;-61
2022/11/19 16:08:47;;;;;;;70.68;39.60;;;;;;;;;;4964514;28;20027;-59
2022/11/19 16:17:31;;;;;;;85.85;48.58;;;;;;;;;;4886741;29;20096;-65
2022/11/19 16:20:02;;;;;;;78.85;44.38;;;;;;;;;;4884999;29;20040;-68
2022/11/19 16:22:29;;;;;;;61.25;34.20;;;;;;;;;;4878712;29;20104;-59
2022/11/19 16:25:01;;;;;;;76.93;43.83;;;;;;;;;;4885312;29;20036;-70
2022/11/19 16:27:27;;;;;;;80.30;42.72;;;;;;;;;;4889262;29;20040;-58
2022/11/19 16:29:54;;;;;;;78.45;42.63;;;;;;;;;;4895001;29;20037;-64
2022/11/19 16:32:21;;;;;;;68.75;40.42;;;;;;;;;;4895001;29;20108;-64
2022/11/19 16:34:47;;;;;;;70.93;40.95;;;;;;;;;;4894844;29;20163;-63
2022/11/19 16:37:14;;;;;;;72.18;40.95;;;;;;;;;;4894707;29;20036;-78
2022/11/19 16:39:41;;;;;;;80.07;43.78;;;;;;;;;;4894907;29;20043;-68
2022/11/19 16:42:15;;;;;;;77.43;44.30;;;;;;;;;;4891742;29;20505;-62
2022/11/19 16:44:42;;;;;;;86.75;48.50;;;;;;;;;;4876005;29;20104;-72
2022/11/19 16:47:14;;;;;;;87.03;47.95;;;;;;;;;;4875534;29;20048;-72
2022/11/19 16:49:40;;;;;;;97.18;52.78;;;;;;;;;;4875435;29;20196;-72
2022/11/19 16:52:06;;;;;;;92.72;51.83;;;;;;;;;;4876194;29;20032;-72
2022/11/19 16:54:44;;;;;;;94.20;53.08;;;;;;;;;;4924275;29;20110;-73
2022/11/19 16:57:11;;;;;;;85.72;48.72;;;;;;;;;;4956315;28;20074;-60
2022/11/19 16:59:38;;;;;;;80.00;44.55;;;;;;;;;;4962329;28;20031;-66
2022/11/19 17:02:04;;;;;;;74.18;43.42;;;;;;;;;;4962735;28;20034;-70
2022/11/19 17:04:31;;;;;;;73.03;42.13;;;;;;;;;;4961048;28;20038;-66
2022/11/19 17:06:57;;;;;;;70.10;41.03;;;;;;;;;;4962413;28;20022;-60
2022/11/19 17:09:32;;;;;;;68.47;40.83;;;;;;;;;;4962456;28;20027;-67
2022/11/19 17:12:16;;;;;;;65.97;39.20;;;;;;;;;;4961584;28;20082;-64
2022/11/19 17:14:46;;;;;;;64.55;38.40;;;;;;;;;;4962062;28;20382;-60
2022/11/19 17:17:31;;;;;;;63.03;37.60;;;;;;;;;;4961098;28;20155;-70
2022/11/19 17:19:57;;;;;;;63.50;37.72;;;;;;;;;;4961604;28;20034;-61
2022/11/19 17:22:27;;;;;;;62.67;35.95;;;;;;;;;;4961396;28;20029;-63
2022/11/19 17:24:53;;;;;;;62.33;36.17;;;;;;;;;;4960834;28;20034;-60
2022/11/19 17:27:25;;;;;;;60.03;35.15;;;;;;;;;;4961746;28;20486;-71
2022/11/19 17:30:02;;;;;;;45.40;24.55;;;;;;;;;;4965002;28;20027;-66
2022/11/19 17:32:52;;;;;;;50.67;30.27;;;;;;;;;;4960773;28;20031;-65
2022/11/19 17:35:37;;;;;;;52.00;31.17;;;;;;;;;;4886371;29;20056;-58
2022/11/19 17:38:12;;;;;;;49.50;28.90;;;;;;;;;;4884111;29;20080;-63
2022/11/19 17:40:39;;;;;;;51.28;30.08;;;;;;;;;;4883260;29;20029;-60
2022/11/19 17:45:54;;;;;;;56.28;32.83;;;;;;;;;;4879488;29;20693;-67
2022/11/19 17:48:21;;;;;;;58.80;34.78;;;;;;;;;;4883616;29;20413;-67
2022/11/19 17:50:48;;;;;;;60.15;35.72;;;;;;;;;;4884389;29;20104;-63
2022/11/19 17:53:14;;;;;;;64.47;38.03;;;;;;;;;;4882454;29;20501;-60
2022/11/19 17:55:41;;;;;;;67.07;39.58;;;;;;;;;;4883509;29;20157;-64
2022/11/19 17:58:07;;;;;;;64.97;38.28;;;;;;;;;;4884021;29;20037;-63
2022/11/19 18:00:33;;;;;;;59.40;35.08;;;;;;;;;;4883618;29;20037;-61
2022/11/19 18:02:59;;;;;;;54.08;34.30;;;;;;;;;;4883143;29;20033;-69
2022/11/19 18:05:26;;;;;;;55.42;33.72;;;;;;;;;;4883487;29;20052;-62
2022/11/19 18:07:52;;;;;;;47.97;27.48;;;;;;;;;;4890615;29;20029;-74
2022/11/19 18:10:19;;;;;;;40.63;24.88;;;;;;;;;;4893387;29;20032;-67
2022/11/19 18:12:45;;;;;;;40.58;26.48;;;;;;;;;;4935649;28;20050;-58
2022/11/19 18:15:15;;;;;;;39.13;23.88;;;;;;;;;;4959900;28;20491;-69
2022/11/19 18:17:41;;;;;;;41.78;25.02;;;;;;;;;;4961953;28;20031;-67
2022/11/19 18:20:07;;;;;;;42.45;25.60;;;;;;;;;;4960323;28;20034;-62
2022/11/19 18:22:37;;;;;;;37.35;23.10;;;;;;;;;;4958196;28;20386;-71
2022/11/19 18:25:12;;;;;;;33.83;22.10;;;;;;;;;;4953095;29;20027;-65
2022/11/19 18:27:38;;;;;;;35.67;22.05;;;;;;;;;;4952258;29;20110;-65
2022/11/19 18:30:04;;;;;;;36.22;23.30;;;;;;;;;;4952404;29;20074;-63
2022/11/19 18:32:31;;;;;;;36.03;22.27;;;;;;;;;;4935363;29;20031;-63
2022/11/19 18:34:57;;;;;;;35.67;20.85;;;;;;;;;;4952001;29;20082;-63
2022/11/19 18:37:23;;;;;;;37.47;23.27;;;;;;;;;;4952124;29;20503;-64
2022/11/19 18:39:49;;;;;;;40.85;23.05;;;;;;;;;;4952514;29;20102;-63
2022/11/19 18:42:15;;;;;;;40.65;24.42;;;;;;;;;;4952190;29;20027;-64
2022/11/19 18:44:42;;;;;;;39.10;23.35;;;;;;;;;;4952363;29;20027;-69
2022/11/19 18:47:10;;;;;;;38.15;23.70;;;;;;;;;;4952086;29;20047;-62
2022/11/19 18:49:36;;;;;;;36.72;23.17;;;;;;;;;;4952802;29;20110;-62
2022/11/19 18:52:02;;;;;;;46.15;27.88;;;;;;;;;;4952379;29;20062;-72
2022/11/19 18:54:29;;;;;;;45.47;28.52;;;;;;;;;;4956787;28;20122;-70
2022/11/19 18:56:55;;;;;;;44.22;26.58;;;;;;;;;;4956224;28;20061;-65
2022/11/19 18:59:21;;;;;;;45.95;29.67;;;;;;;;;;4969262;28;20077;-64
2022/11/19 19:01:47;;;;;;;51.38;31.38;;;;;;;;;;4952345;29;20070;-65
2022/11/19 19:04:13;;;;;;;48.42;30.42;;;;;;;;;;4952288;29;20127;-63
2022/11/19 19:06:39;;;;;;;49.35;29.63;;;;;;;;;;4956106;28;20046;-63
2022/11/19 19:09:06;;;;;;;48.15;29.58;;;;;;;;;;4953654;28;20032;-60
2022/11/19 19:14:16;;;;;;;42.17;24.58;;;;;;;;;;4956826;28;20102;-67
2022/11/19 19:16:42;;;;;;;37.78;24.23;;;;;;;;;;4955020;29;20467;-62
2022/11/19 19:19:09;;;;;;;33.88;21.60;;;;;;;;;;4955966;29;20049;-64
2022/11/19 19:21:35;;;;;;;27.30;17.48;;;;;;;;;;4955660;29;20031;-60
2022/11/19 19:24:04;;;;;;;31.95;19.85;;;;;;;;;;4957846;28;20031;-61
2022/11/19 19:26:30;;;;;;;31.95;19.73;;;;;;;;;;4965368;28;20027;-62
2022/11/19 19:28:56;;;;;;;31.42;18.48;;;;;;;;;;4971554;28;20038;-72
2022/11/19 19:31:23;;;;;;;32.80;18.92;;;;;;;;;;4961551;28;20024;-64
2022/11/19 19:33:49;;;;;;;29.52;18.33;;;;;;;;;;4962548;28;20483;-64
2022/11/19 19:36:16;;;;;;;32.55;19.30;;;;;;;;;;4960563;28;20043;-64
2022/11/19 19:38:43;;;;;;;28.42;17.48;;;;;;;;;;4969727;28;20501;-63
2022/11/19 19:41:17;;;;;;;33.85;20.95;;;;;;;;;;4957802;28;20037;-62
2022/11/19 19:43:43;;;;;;;32.72;21.08;;;;;;;;;;4954567;29;20106;-66
2022/11/19 19:46:14;;;;;;;35.90;21.42;;;;;;;;;;4958085;28;20439;-63
2022/11/19 19:48:41;;;;;;;24.55;15.02;;;;;;;;;;4974027;28;20482;-64
2022/11/19 19:51:07;;;;;;;35.20;21.45;;;;;;;;;;4954204;28;20035;-63
2022/11/19 19:53:33;;;;;;;32.20;17.40;;;;;;;;;;4937575;29;20164;-64
2022/11/19 19:56:03;;;;;;;23.95;15.55;;;;;;;;;;4956537;28;20395;-61
2022/11/19 19:58:30;;;;;;;28.02;17.38;;;;;;;;;;4955218;29;20039;-65
2022/11/19 20:01:05;;;;;;;27.88;16.40;;;;;;;;;;4954594;29;20090;-66
2022/11/19 20:03:31;;;;;;;35.05;19.48;;;;;;;;;;4954634;29;20023;-66
2022/11/19 20:05:57;;;;;;;27.10;17.20;;;;;;;;;;4956340;28;20360;-60
2022/11/19 20:08:23;;;;;;;24.73;15.32;;;;;;;;;;4973089;28;20106;-66
2022/11/19 20:10:49;;;;;;;29.25;18.17;;;;;;;;;;4958986;28;20436;-62
2022/11/19 20:13:49;;;;;;;34.85;20.23;;;;;;;;;;4973040;28;20035;-66
2022/11/19 20:16:09;;;;;;;29.38;17.55;;;;;;;;;;4971261;28;20042;-66
2022/11/19 20:18:35;;;;;;;31.63;17.85;;;;;;;;;;4972272;28;20026;-68
2022/11/19 20:21:02;;;;;;;28.02;17.40;;;;;;;;;;4973960;28;20033;-60
2022/11/19 20:23:29;;;;;;;28.00;15.95;;;;;;;;;;4965994;28;20031;-61
2022/11/19 20:25:56;;;;;;;24.83;14.85;;;;;;;;;;4971693;28;20491;-64
2022/11/19 20:28:22;;;;;;;25.35;15.35;;;;;;;;;;4955076;28;20117;-61
2022/11/19 20:30:48;;;;;;;27.55;15.50;;;;;;;;;;4955017;28;20030;-61
2022/11/19 20:33:14;;;;;;;26.70;15.57;;;;;;;;;;4968838;28;20097;-60
2022/11/19 20:35:48;;;;;;;27.85;16.73;;;;;;;;;;4973676;28;20034;-66
2022/11/19 20:38:14;;;;;;;30.05;16.63;;;;;;;;;;4955460;28;20035;-63
2022/11/19 20:40:41;;;;;;;27.50;17.13;;;;;;;;;;4954101;28;20027;-61
2022/11/19 20:45:53;;;;;;;27.30;16.02;;;;;;;;;;4960700;28;20050;-62
2022/11/19 20:48:19;;;;;;;26.17;15.77;;;;;;;;;;4960082;28;20502;-64
2022/11/19 20:50:45;;;;;;;22.85;14.07;;;;;;;;;;4959244;28;20054;-64
2022/11/19 20:53:11;;;;;;;22.10;14.25;;;;;;;;;;4953019;29;20082;-63
2022/11/19 20:55:37;;;;;;;21.52;13.55;;;;;;;;;;4955086;29;20062;-67